Time;durP1;ratioP1;P1;durP2;ratioP2;P2;SDS_P1;SDS_P2;PMS_P1;PMS_P2;Temp;Humidity;BMP_temperature;BMP_pressure;BME280_temperature;BME280_humidity;BME280_pressure;Samples;Min_cycle;Max_cycle;Signal;HPM_P1;HPM_P2
2021/04/22 00:01:02;;;;;;;6.10;5.18;;;9.80;81.80;;;;;;5037104;28;20033;-72
2021/04/22 00:03:27;;;;;;;6.75;4.95;;;9.80;82.10;;;;;;5036656;28;20029;-72
2021/04/22 00:05:53;;;;;;;8.05;5.55;;;9.70;83.10;;;;;;5037014;28;20029;-72
2021/04/22 00:08:19;;;;;;;8.20;6.43;;;9.70;80.90;;;;;;5036988;28;20079;-72
2021/04/22 00:10:50;;;;;;;8.68;7.32;;;9.60;82.30;;;;;;5036655;28;20083;-72
2021/04/22 00:13:22;;;;;;;6.75;6.00;;;9.60;83.10;;;;;;5036835;28;20322;-72
2021/04/22 00:15:51;;;;;;;6.45;5.72;;;9.70;83.30;;;;;;5036955;28;20017;-72
2021/04/22 00:18:18;;;;;;;5.80;5.10;;;9.60;82.10;;;;;;5036872;28;20033;-72
2021/04/22 00:20:43;;;;;;;6.93;6.22;;;9.60;82.60;;;;;;5036598;28;20022;-72
2021/04/22 00:23:11;;;;;;;5.20;4.35;;;9.60;80.90;;;;;;5036802;28;20033;-72
2021/04/22 00:25:37;;;;;;;6.20;5.57;;;9.60;82.40;;;;;;5036505;28;20038;-72
2021/04/22 00:28:04;;;;;;;6.03;5.43;;;9.60;82.10;;;;;;5036765;28;20036;-72
2021/04/22 00:30:31;;;;;;;6.22;4.95;;;9.50;82.60;;;;;;5036508;28;20029;-72
2021/04/22 00:32:56;;;;;;;6.53;5.40;;;9.50;84.00;;;;;;5040414;28;20342;-72
2021/04/22 00:35:22;;;;;;;8.48;7.18;;;9.50;84.00;;;;;;5040727;28;20025;-72
2021/04/22 00:37:48;;;;;;;9.18;8.25;;;9.50;82.20;;;;;;5040431;28;20026;-72
2021/04/22 00:40:21;;;;;;;9.45;8.45;;;9.40;83.40;;;;;;5040727;28;20076;-72
2021/04/22 00:42:47;;;;;;;11.88;9.73;;;9.30;84.70;;;;;;5040387;28;20105;-72
2021/04/22 00:45:13;;;;;;;11.20;8.48;;;9.20;84.50;;;;;;5040467;28;20291;-72
2021/04/22 00:47:39;;;;;;;11.00;8.30;;;9.10;85.10;;;;;;5040245;28;20414;-72
2021/04/22 00:50:10;;;;;;;8.73;7.30;;;9.10;86.30;;;;;;5040535;28;20045;-72
2021/04/22 00:52:37;;;;;;;6.18;5.47;;;9.10;87.10;;;;;;5040559;28;20049;-72
2021/04/22 00:55:03;;;;;;;6.93;6.18;;;9.00;86.00;;;;;;5040535;28;20416;-72
2021/04/22 00:57:28;;;;;;;7.95;7.03;;;8.90;84.10;;;;;;5040060;28;20472;-72
2021/04/22 00:59:54;;;;;;;7.82;7.03;;;8.80;85.90;;;;;;5040818;28;20033;-72
2021/04/22 01:02:20;;;;;;;8.15;7.13;;;8.90;87.30;;;;;;5040041;28;20034;-72
2021/04/22 01:04:47;;;;;;;7.80;7.00;;;8.90;87.50;;;;;;5040215;28;20110;-72
2021/04/22 01:07:16;;;;;;;7.75;6.57;;;9.00;87.70;;;;;;5039916;28;20037;-72
2021/04/22 01:09:42;;;;;;;7.75;6.95;;;9.10;87.30;;;;;;5040210;28;20034;-72
2021/04/22 01:12:10;;;;;;;11.35;7.97;;;9.10;87.40;;;;;;5040174;28;20029;-72
2021/04/22 01:14:36;;;;;;;12.63;9.50;;;9.10;87.50;;;;;;5039928;28;20095;-72
2021/04/22 01:17:01;;;;;;;9.15;8.02;;;9.10;87.90;;;;;;5040068;28;20026;-72
2021/04/22 01:19:27;;;;;;;10.82;9.18;;;9.20;88.40;;;;;;5039990;28;20429;-72
2021/04/22 01:21:54;;;;;;;10.63;8.38;;;9.20;88.20;;;;;;5039930;28;20104;-72
2021/04/22 01:24:20;;;;;;;9.98;8.98;;;9.20;87.70;;;;;;5039802;28;20409;-72
2021/04/22 01:26:46;;;;;;;11.35;9.18;;;9.30;87.50;;;;;;5038661;28;20118;-72
2021/04/22 01:29:13;;;;;;;11.00;9.68;;;9.30;87.50;;;;;;5038297;28;20030;-72
2021/04/22 01:31:39;;;;;;;12.60;9.23;;;9.20;87.60;;;;;;5038620;28;20044;-72
2021/04/22 01:34:08;;;;;;;11.35;8.90;;;9.20;87.00;;;;;;5038402;28;20425;-72
2021/04/22 01:36:40;;;;;;;9.80;8.73;;;9.20;87.00;;;;;;5038195;28;20080;-72
2021/04/22 01:39:09;;;;;;;13.15;9.77;;;9.20;86.40;;;;;;5038065;28;20036;-72
2021/04/22 01:41:34;;;;;;;11.85;9.35;;;9.20;86.20;;;;;;5038288;28;20021;-72
2021/04/22 01:44:01;;;;;;;10.55;9.45;;;9.20;85.60;;;;;;5038122;28;20309;-72
2021/04/22 01:46:27;;;;;;;11.52;9.93;;;9.10;86.00;;;;;;5038320;28;20029;-72
2021/04/22 01:48:53;;;;;;;10.98;9.88;;;9.10;86.30;;;;;;5037978;28;20448;-72
2021/04/22 01:51:20;;;;;;;10.18;9.18;;;9.10;86.70;;;;;;5037979;28;20029;-72
2021/04/22 01:53:46;;;;;;;11.07;9.98;;;9.10;86.10;;;;;;5037907;28;20029;-72
2021/04/22 01:56:12;;;;;;;11.65;9.45;;;9.10;85.90;;;;;;5038175;28;20428;-72
2021/04/22 01:58:37;;;;;;;10.90;9.45;;;9.10;86.30;;;;;;5038220;28;20044;-72
2021/04/22 02:01:04;;;;;;;10.73;9.60;;;9.10;86.00;;;;;;5038195;28;20025;-72
2021/04/22 02:03:32;;;;;;;11.50;10.07;;;9.10;84.70;;;;;;5037790;28;20029;-72
2021/04/22 02:05:58;;;;;;;10.63;9.63;;;9.10;85.00;;;;;;5037735;28;20045;-72
2021/04/22 02:08:25;;;;;;;11.27;9.07;;;9.10;85.20;;;;;;5037983;28;20299;-72
2021/04/22 02:10:51;;;;;;;10.27;9.27;;;9.00;85.10;;;;;;5037685;28;20029;-72
2021/04/22 02:13:18;;;;;;;11.82;10.60;;;8.90;85.20;;;;;;5037845;28;20112;-72
2021/04/22 02:15:45;;;;;;;11.57;9.82;;;8.90;85.70;;;;;;5037572;28;20022;-72
2021/04/22 02:18:11;;;;;;;13.10;9.90;;;8.80;86.40;;;;;;5037861;28;20048;-72
2021/04/22 02:20:36;;;;;;;12.20;10.73;;;8.80;86.70;;;;;;5037544;28;20421;-72
2021/04/22 02:23:04;;;;;;;11.60;10.38;;;8.70;87.30;;;;;;5037716;28;20101;-72
2021/04/22 02:25:30;;;;;;;12.63;11.15;;;8.60;87.50;;;;;;5015688;28;632763;-72
2021/04/22 02:27:57;;;;;;;12.68;11.38;;;8.60;87.90;;;;;;5038791;28;20029;-72
2021/04/22 02:30:32;;;;;;;12.05;10.43;;;8.50;88.20;;;;;;5038652;28;20033;-72
2021/04/22 02:33:03;;;;;;;10.60;9.52;;;8.40;88.40;;;;;;5038225;28;20079;-72
2021/04/22 02:35:31;;;;;;;11.88;10.48;;;8.30;88.70;;;;;;5038475;28;20029;-72
2021/04/22 02:37:57;;;;;;;12.32;10.20;;;8.20;89.10;;;;;;5038537;28;20047;-72
2021/04/22 02:40:25;;;;;;;18.17;11.13;;;8.10;89.80;;;;;;5038492;28;20029;-72
2021/04/22 02:42:52;;;;;;;12.70;11.40;;;8.00;90.20;;;;;;5038375;28;20029;-72
2021/04/22 02:45:27;;;;;;;16.33;11.70;;;7.90;90.60;;;;;;5038330;28;20025;-72
2021/04/22 02:47:52;;;;;;;13.40;12.00;;;7.90;90.50;;;;;;5038160;28;20409;-72
2021/04/22 02:50:21;;;;;;;13.73;10.40;;;7.90;90.50;;;;;;5038361;28;20025;-72
2021/04/22 02:52:46;;;;;;;12.55;10.43;;;7.90;90.70;;;;;;5037733;28;20025;-72
2021/04/22 02:55:14;;;;;;;12.02;10.18;;;7.90;91.00;;;;;;5037334;28;20047;-72
2021/04/22 02:57:40;;;;;;;13.35;10.93;;;7.90;90.60;;;;;;5037791;28;20021;-72
2021/04/22 03:00:09;;;;;;;12.38;11.10;;;7.80;91.30;;;;;;5038126;28;20033;-72
2021/04/22 03:02:35;;;;;;;12.23;10.95;;;7.70;91.60;;;;;;5038105;28;20333;-72
2021/04/22 03:05:01;;;;;;;12.85;10.70;;;7.80;91.80;;;;;;5037636;28;20033;-72
2021/04/22 03:07:26;;;;;;;11.68;10.48;;;7.80;91.90;;;;;;5037954;28;20025;-72
2021/04/22 03:09:52;;;;;;;13.18;11.23;;;7.80;91.80;;;;;;5037942;28;20052;-72
2021/04/22 03:12:17;;;;;;;13.45;11.68;;;7.80;91.70;;;;;;5037880;28;20052;-72
2021/04/22 03:14:43;;;;;;;13.68;10.70;;;7.80;92.10;;;;;;5037701;28;20025;-72
2021/04/22 03:17:09;;;;;;;14.80;11.50;;;7.80;92.10;;;;;;5037784;28;20402;-72
2021/04/22 03:19:35;;;;;;;13.55;10.85;;;7.80;92.60;;;;;;5037460;28;20040;-72
2021/04/22 03:22:00;;;;;;;14.55;11.45;;;7.80;92.20;;;;;;5037684;28;20020;-72
2021/04/22 03:24:26;;;;;;;13.20;11.40;;;7.80;92.20;;;;;;5037305;28;20322;-72
2021/04/22 03:26:52;;;;;;;13.15;11.18;;;7.80;92.40;;;;;;5037236;28;20103;-72
2021/04/22 03:29:18;;;;;;;12.73;11.05;;;7.80;91.90;;;;;;5037636;28;20038;-72
2021/04/22 03:31:44;;;;;;;11.40;10.20;;;7.80;91.60;;;;;;5037205;28;20108;-72
2021/04/22 03:34:09;;;;;;;11.23;10.02;;;7.80;91.70;;;;;;5037327;28;20037;-72
2021/04/22 03:36:35;;;;;;;15.65;10.70;;;7.70;91.20;;;;;;5037169;28;20096;-72
2021/04/22 03:39:01;;;;;;;11.23;10.02;;;7.60;92.10;;;;;;5037090;28;20075;-72
2021/04/22 03:41:27;;;;;;;12.10;9.77;;;7.50;92.00;;;;;;5037105;28;20021;-72
2021/04/22 03:43:53;;;;;;;11.40;10.20;;;7.50;92.20;;;;;;5037263;28;20075;-72
2021/04/22 03:46:19;;;;;;;10.60;9.35;;;7.50;92.30;;;;;;5037306;28;20442;-72
2021/04/22 03:48:44;;;;;;;10.55;9.45;;;7.50;92.00;;;;;;5037251;28;20314;-72
2021/04/22 03:51:10;;;;;;;11.32;9.95;;;7.50;92.10;;;;;;5036905;28;20321;-72
2021/04/22 03:53:36;;;;;;;12.43;11.00;;;7.50;92.30;;;;;;5036848;28;20029;-72
2021/04/22 03:56:02;;;;;;;11.75;9.40;;;7.40;92.50;;;;;;5037148;28;20109;-72
2021/04/22 03:58:27;;;;;;;13.75;9.35;;;7.40;91.90;;;;;;5037130;28;20025;-72
2021/04/22 04:00:53;;;;;;;13.68;11.02;;;7.40;92.20;;;;;;5037111;28;20048;-72
2021/04/22 04:03:19;;;;;;;13.95;10.73;;;7.40;92.50;;;;;;5036954;28;20025;-72
2021/04/22 04:05:45;;;;;;;11.13;9.93;;;7.40;92.70;;;;;;5036951;28;20038;-72
2021/04/22 04:08:11;;;;;;;12.10;9.30;;;7.40;92.20;;;;;;5036987;28;20148;-72
2021/04/22 04:10:36;;;;;;;12.38;10.18;;;7.40;91.80;;;;;;5037006;28;20418;-72
2021/04/22 04:13:02;;;;;;;15.43;10.15;;;7.40;91.60;;;;;;5036890;28;20036;-72
2021/04/22 04:15:28;;;;;;;11.65;10.20;;;7.30;92.20;;;;;;5036818;28;20017;-72
2021/04/22 04:17:53;;;;;;;11.70;9.93;;;7.40;92.50;;;;;;5036876;28;20029;-72
2021/04/22 04:20:19;;;;;;;13.00;9.93;;;7.40;92.80;;;;;;5036594;28;20052;-72
2021/04/22 04:22:47;;;;;;;10.05;9.00;;;7.30;93.20;;;;;;5036527;28;20071;-72
2021/04/22 04:25:13;;;;;;;12.50;10.23;;;7.30;93.00;;;;;;5036508;28;20090;-72
2021/04/22 04:27:39;;;;;;;11.52;10.10;;;7.30;93.00;;;;;;5035519;28;20030;-72
2021/04/22 04:30:06;;;;;;;11.15;9.55;;;7.20;93.00;;;;;;5036806;28;20314;-72
2021/04/22 04:32:32;;;;;;;11.52;10.13;;;7.20;93.00;;;;;;5036467;28;20036;-72
2021/04/22 04:34:58;;;;;;;11.88;9.63;;;7.20;92.70;;;;;;5036569;28;20021;-72
2021/04/22 04:37:23;;;;;;;11.27;9.98;;;7.20;92.60;;;;;;5036764;28;20021;-72
2021/04/22 04:39:50;;;;;;;11.35;9.70;;;7.20;92.60;;;;;;5037103;28;20029;-72
2021/04/22 04:42:17;;;;;;;10.10;9.07;;;7.10;92.50;;;;;;5036396;28;20405;-72
2021/04/22 04:44:42;;;;;;;12.70;10.05;;;7.10;93.00;;;;;;5036646;28;20312;-72
2021/04/22 04:47:08;;;;;;;12.18;10.43;;;7.10;93.60;;;;;;5036289;28;20030;-72
2021/04/22 04:49:34;;;;;;;13.43;10.18;;;7.20;93.10;;;;;;5036325;28;20029;-72
2021/04/22 04:51:59;;;;;;;11.55;10.35;;;7.20;92.60;;;;;;5036289;28;20041;-72
2021/04/22 04:54:25;;;;;;;11.15;9.90;;;7.20;92.80;;;;;;5036391;28;20045;-72
2021/04/22 04:56:51;;;;;;;10.68;9.27;;;7.30;92.70;;;;;;5036245;28;20075;-72
2021/04/22 04:59:17;;;;;;;11.48;9.48;;;7.30;92.60;;;;;;5036292;28;20060;-72
2021/04/22 05:01:42;;;;;;;10.35;9.18;;;7.30;92.60;;;;;;5036205;28;20053;-72
2021/04/22 05:04:08;;;;;;;13.73;9.50;;;7.40;93.00;;;;;;5036387;28;20022;-72
2021/04/22 05:06:34;;;;;;;12.88;9.60;;;7.40;92.90;;;;;;5036202;28;20033;-72
2021/04/22 05:09:00;;;;;;;11.13;9.98;;;7.50;93.30;;;;;;5036193;28;20029;-72
2021/04/22 05:11:25;;;;;;;12.30;8.95;;;7.60;93.60;;;;;;5036440;28;20100;-72
2021/04/22 05:13:51;;;;;;;9.98;8.95;;;7.70;93.90;;;;;;5036283;28;20025;-72
2021/04/22 05:16:18;;;;;;;11.50;9.18;;;7.90;93.50;;;;;;5036045;28;20113;-72
2021/04/22 05:18:43;;;;;;;11.73;9.45;;;8.00;92.60;;;;;;5039327;28;20108;-72
2021/04/22 05:21:09;;;;;;;10.05;9.10;;;8.10;92.50;;;;;;5040011;28;20053;-72
2021/04/22 05:23:35;;;;;;;12.95;9.77;;;8.20;92.30;;;;;;5039937;28;20033;-72
2021/04/22 05:26:01;;;;;;;11.25;9.55;;;8.30;92.40;;;;;;5039556;28;20056;-72
2021/04/22 05:28:26;;;;;;;11.15;9.40;;;8.40;91.80;;;;;;5039540;28;20361;-72
2021/04/22 05:30:52;;;;;;;11.00;8.85;;;8.40;91.30;;;;;;5039513;28;20036;-72
2021/04/22 05:33:18;;;;;;;12.05;9.15;;;8.60;90.60;;;;;;5039307;28;20032;-72
2021/04/22 05:35:44;;;;;;;10.95;9.23;;;8.60;89.60;;;;;;5039761;28;20045;-72
2021/04/22 05:38:10;;;;;;;11.60;9.70;;;8.70;88.50;;;;;;5039635;28;20055;-72
2021/04/22 05:40:36;;;;;;;13.48;10.73;;;8.80;88.60;;;;;;5039704;28;20367;-72
2021/04/22 05:43:05;;;;;;;11.32;9.18;;;8.90;88.30;;;;;;5039537;28;20048;-72
2021/04/22 05:45:30;;;;;;;10.50;9.40;;;8.90;88.40;;;;;;5039422;28;20052;-72
2021/04/22 05:47:56;;;;;;;10.00;8.45;;;9.00;87.50;;;;;;5039213;28;20022;-72
2021/04/22 05:50:22;;;;;;;10.50;9.40;;;9.10;87.00;;;;;;5039452;28;20022;-72
2021/04/22 05:52:48;;;;;;;10.45;8.90;;;9.30;86.50;;;;;;5039327;28;20030;-72
2021/04/22 05:55:16;;;;;;;10.63;9.13;;;9.40;86.60;;;;;;5039245;28;20041;-72
2021/04/22 05:57:41;;;;;;;12.60;9.65;;;9.50;86.80;;;;;;5039321;28;20359;-72
2021/04/22 06:00:11;;;;;;;10.13;8.55;;;9.50;86.20;;;;;;5039293;28;20111;-72
2021/04/22 06:02:37;;;;;;;11.43;9.23;;;9.60;85.70;;;;;;5038947;28;20049;-72
2021/04/22 06:05:03;;;;;;;15.40;10.35;;;9.60;85.80;;;;;;5039109;28;20053;-72
2021/04/22 06:07:29;;;;;;;10.52;9.43;;;9.60;86.00;;;;;;5038799;28;20025;-72
2021/04/22 06:09:55;;;;;;;11.07;9.82;;;9.60;85.50;;;;;;5039053;28;20066;-72
2021/04/22 06:12:20;;;;;;;11.48;9.50;;;9.80;85.80;;;;;;5038765;28;20343;-72
2021/04/22 06:14:46;;;;;;;13.82;9.80;;;9.80;85.70;;;;;;5038816;28;20121;-72
2021/04/22 06:17:12;;;;;;;12.57;9.77;;;9.90;85.10;;;;;;5038942;28;20026;-72
2021/04/22 06:19:37;;;;;;;9.68;8.75;;;10.00;85.40;;;;;;5038956;28;20429;-72
2021/04/22 06:22:03;;;;;;;10.82;8.80;;;10.00;83.50;;;;;;5038880;28;20029;-72
2021/04/22 06:24:29;;;;;;;10.40;9.40;;;10.00;82.70;;;;;;5038798;28;20048;-72
2021/04/22 06:26:55;;;;;;;9.73;8.25;;;10.10;84.90;;;;;;5038368;28;20107;-72
2021/04/22 06:29:21;;;;;;;11.38;8.80;;;10.30;84.90;;;;;;5037275;28;20040;-72
2021/04/22 06:31:47;;;;;;;10.48;8.75;;;10.50;84.70;;;;;;5038733;28;20026;-72
2021/04/22 06:34:14;;;;;;;9.32;8.40;;;10.90;82.70;;;;;;5038546;28;20034;-72
2021/04/22 06:36:41;;;;;;;9.40;8.45;;;11.40;80.80;;;;;;5038620;28;20318;-72
2021/04/22 06:39:07;;;;;;;9.20;8.27;;;12.00;79.00;;;;;;5038601;28;20033;-72
2021/04/22 06:41:34;;;;;;;8.73;7.93;;;12.60;77.80;;;;;;5038546;28;20025;-72
2021/04/22 06:44:00;;;;;;;9.40;8.13;;;12.90;75.90;;;;;;5038098;28;20041;-72
2021/04/22 06:46:26;;;;;;;8.57;7.07;;;13.30;74.30;;;;;;5038085;28;20068;-72
2021/04/22 06:48:51;;;;;;;8.48;7.53;;;13.60;72.60;;;;;;5038360;28;20060;-72
2021/04/22 06:51:17;;;;;;;7.93;6.85;;;13.20;72.70;;;;;;5038031;28;20025;-72
2021/04/22 06:53:43;;;;;;;12.18;7.40;;;12.70;74.60;;;;;;5038148;28;20047;-72
2021/04/22 06:56:09;;;;;;;7.95;7.13;;;12.10;75.20;;;;;;5037907;28;20025;-72
2021/04/22 06:58:35;;;;;;;8.82;7.88;;;11.80;77.70;;;;;;5037914;28;20029;-72
2021/04/22 07:01:00;;;;;;;8.63;7.55;;;11.70;77.10;;;;;;5038166;28;20025;-72
2021/04/22 07:03:26;;;;;;;9.02;8.13;;;11.50;78.00;;;;;;5038012;28;20314;-72
2021/04/22 07:05:52;;;;;;;9.82;8.00;;;11.40;77.50;;;;;;5037735;28;20029;-72
2021/04/22 07:08:18;;;;;;;9.02;8.13;;;11.50;77.70;;;;;;5037979;28;20033;-72
2021/04/22 07:10:44;;;;;;;8.73;7.80;;;11.80;77.00;;;;;;5037838;28;20022;-72
2021/04/22 07:13:10;;;;;;;8.60;7.70;;;11.90;76.00;;;;;;5037770;28;20325;-72
2021/04/22 07:15:36;;;;;;;10.10;7.75;;;12.00;75.80;;;;;;5037468;28;20427;-72
2021/04/22 07:18:08;;;;;;;9.80;8.60;;;12.00;76.20;;;;;;5037492;28;20417;-72
2021/04/22 07:20:34;;;;;;;10.25;8.18;;;12.40;76.40;;;;;;5037432;28;20036;-72
2021/04/22 07:23:00;;;;;;;8.50;7.60;;;13.20;72.20;;;;;;5037325;28;20033;-72
2021/04/22 07:25:32;;;;;;;7.57;6.78;;;14.10;71.10;;;;;;5037115;28;21131;-72
2021/04/22 07:28:03;;;;;;;7.60;6.80;;;15.20;71.30;;;;;;5037361;28;20437;-72
2021/04/22 07:30:29;;;;;;;8.70;6.88;;;15.90;68.20;;;;;;5037344;28;20035;-72
2021/04/22 07:32:55;;;;;;;9.00;7.50;;;16.40;67.60;;;;;;5037573;28;20108;-72
2021/04/22 07:35:20;;;;;;;7.38;6.63;;;16.80;67.10;;;;;;5037031;28;20033;-72
2021/04/22 07:37:48;;;;;;;8.02;6.97;;;17.20;64.50;;;;;;5037473;28;20026;-72
2021/04/22 07:40:18;;;;;;;9.48;6.63;;;17.60;62.40;;;;;;5037031;28;20383;-72
2021/04/22 07:42:44;;;;;;;8.52;7.32;;;17.90;61.70;;;;;;5037040;28;20053;-72
2021/04/22 07:45:11;;;;;;;7.90;6.82;;;18.10;61.50;;;;;;5037286;28;20053;-72
2021/04/22 07:47:37;;;;;;;8.77;7.05;;;18.20;58.90;;;;;;5036939;28;20120;-72
2021/04/22 07:50:06;;;;;;;7.72;6.63;;;18.40;61.00;;;;;;5036966;28;20057;-72
2021/04/22 07:52:32;;;;;;;8.05;7.25;;;18.50;61.00;;;;;;5037229;28;20151;-72
2021/04/22 07:54:57;;;;;;;10.55;6.78;;;17.50;63.00;;;;;;5037237;28;20100;-72
2021/04/22 07:57:23;;;;;;;8.65;7.05;;;16.50;63.40;;;;;;5037182;28;20401;-72
2021/04/22 07:59:49;;;;;;;8.00;7.20;;;15.50;68.30;;;;;;5037174;28;20302;-72
2021/04/22 08:02:14;;;;;;;8.80;7.90;;;14.70;70.30;;;;;;5037086;28;20037;-72
2021/04/22 08:04:41;;;;;;;10.15;9.10;;;14.00;70.90;;;;;;5036964;28;20030;-72
2021/04/22 08:07:07;;;;;;;10.05;9.05;;;13.60;74.00;;;;;;5036690;28;20061;-72
2021/04/22 08:09:33;;;;;;;10.98;9.23;;;13.20;76.10;;;;;;5037005;28;20103;-72
2021/04/22 08:12:00;;;;;;;11.10;8.95;;;13.00;78.50;;;;;;5036727;28;20033;-72
2021/04/22 08:14:26;;;;;;;11.63;9.80;;;12.80;78.10;;;;;;5036487;28;20422;-72
2021/04/22 08:16:52;;;;;;;10.38;9.27;;;12.70;77.40;;;;;;5036616;28;20100;-72
2021/04/22 08:19:17;;;;;;;10.95;9.75;;;12.40;78.20;;;;;;5036952;28;20017;-72
2021/04/22 08:21:43;;;;;;;10.43;9.32;;;12.40;79.30;;;;;;5036851;28;20405;-72
2021/04/22 08:24:09;;;;;;;11.32;9.98;;;12.40;79.00;;;;;;5036738;28;20095;-72
2021/04/22 08:26:36;;;;;;;12.05;9.80;;;12.40;79.60;;;;;;5036513;28;20061;-72
2021/04/22 08:29:03;;;;;;;11.32;10.18;;;12.30;81.60;;;;;;5036754;28;20056;-72
2021/04/22 08:31:29;;;;;;;11.15;9.50;;;12.30;81.50;;;;;;5036851;28;20036;-72
2021/04/22 08:34:07;;;;;;;12.88;9.88;;;12.40;82.50;;;;;;5036353;28;20387;-72
2021/04/22 08:36:33;;;;;;;10.15;8.68;;;12.60;83.00;;;;;;5036498;28;20298;-72
2021/04/22 08:38:59;;;;;;;10.57;9.23;;;12.80;81.80;;;;;;5036392;28;20022;-72
2021/04/22 08:41:25;;;;;;;10.93;8.60;;;13.10;80.70;;;;;;5036399;28;20040;-72
2021/04/22 08:43:51;;;;;;;11.52;8.18;;;13.70;78.50;;;;;;5036600;28;20072;-72
2021/04/22 08:46:18;;;;;;;10.27;8.13;;;14.40;74.30;;;;;;5036365;28;20053;-72
2021/04/22 08:48:44;;;;;;;9.23;8.02;;;14.50;72.90;;;;;;5036594;28;20317;-72
2021/04/22 08:51:12;;;;;;;10.18;8.80;;;14.50;73.80;;;;;;5036356;28;20421;-72
2021/04/22 08:53:42;;;;;;;9.48;8.23;;;14.30;71.10;;;;;;5039162;28;20030;-72
2021/04/22 08:56:08;;;;;;;8.82;7.97;;;14.80;74.40;;;;;;5040508;28;20041;-72
2021/04/22 08:58:36;;;;;;;11.45;9.00;;;16.10;69.20;;;;;;5040158;28;20106;-72
2021/04/22 09:01:10;;;;;;;10.38;8.50;;;17.10;66.80;;;;;;5040432;28;20029;-72
2021/04/22 09:03:37;;;;;;;9.05;8.10;;;17.80;66.50;;;;;;5040326;28;20033;-72
2021/04/22 09:06:03;;;;;;;10.05;8.13;;;18.30;66.50;;;;;;5040246;28;20325;-72
2021/04/22 09:08:47;;;;;;;9.85;8.00;;;18.60;62.20;;;;;;5040237;28;20022;-72
2021/04/22 09:11:15;;;;;;;9.30;8.27;;;19.00;62.70;;;;;;5039839;28;20083;-72
2021/04/22 09:13:41;;;;;;;12.00;7.50;;;19.20;62.40;;;;;;5039723;28;20422;-72
2021/04/22 09:16:17;;;;;;;9.65;8.13;;;18.60;64.30;;;;;;5039756;28;20058;-72
2021/04/22 09:18:45;;;;;;;9.10;8.20;;;17.60;64.80;;;;;;5039910;28;20492;-72
2021/04/22 09:21:27;;;;;;;10.35;7.57;;;17.50;66.20;;;;;;5040045;28;20030;-72
2021/04/22 09:24:10;;;;;;;9.88;8.88;;;17.00;66.50;;;;;;5039791;28;20036;-72
2021/04/22 09:26:35;;;;;;;10.80;8.90;;;16.10;68.60;;;;;;5039627;28;20057;-72
2021/04/22 09:29:02;;;;;;;9.65;8.27;;;15.40;70.70;;;;;;5039807;28;20029;-72
2021/04/22 09:31:29;;;;;;;10.00;9.00;;;15.00;71.80;;;;;;5039594;28;20026;-72
2021/04/22 09:34:06;;;;;;;9.23;8.30;;;14.60;72.80;;;;;;5039646;28;20303;-72
2021/04/22 09:36:45;;;;;;;11.00;8.65;;;14.30;74.10;;;;;;5039663;28;20036;-72
2021/04/22 09:39:13;;;;;;;10.52;9.40;;;14.10;75.40;;;;;;5039426;28;20112;-72
2021/04/22 09:41:38;;;;;;;9.57;8.57;;;14.50;76.70;;;;;;5039362;28;20021;-72
2021/04/22 09:44:07;;;;;;;10.35;9.27;;;14.50;74.40;;;;;;5039508;28;20028;-72
2021/04/22 09:46:34;;;;;;;9.82;8.77;;;14.90;75.50;;;;;;5039218;28;20029;-72
2021/04/22 09:49:07;;;;;;;8.57;7.72;;;15.50;73.60;;;;;;5039486;28;20072;-72
2021/04/22 09:51:34;;;;;;;11.25;8.00;;;16.30;70.50;;;;;;5039172;28;20095;-72
2021/04/22 09:54:28;;;;;;;8.98;8.05;;;16.60;67.60;;;;;;5039339;28;20040;-72
2021/04/22 09:56:56;;;;;;;11.63;9.07;;;16.90;67.20;;;;;;5038537;28;20042;-72
2021/04/22 09:59:25;;;;;;;9.60;8.32;;;16.60;67.50;;;;;;5039002;28;20025;-72
2021/04/22 10:02:05;;;;;;;11.35;7.45;;;15.90;70.70;;;;;;5038998;28;20087;-72
2021/04/22 10:04:35;;;;;;;10.73;7.47;;;15.50;71.80;;;;;;5038560;28;20108;-72
2021/04/22 10:07:01;;;;;;;8.80;7.75;;;15.30;71.40;;;;;;5039152;28;20033;-72
2021/04/22 10:09:34;;;;;;;10.63;8.20;;;15.20;72.70;;;;;;5039190;28;20029;-72
2021/04/22 10:12:01;;;;;;;9.77;8.60;;;15.10;73.10;;;;;;5039084;28;20053;-72
2021/04/22 10:14:36;;;;;;;9.20;8.32;;;14.80;71.60;;;;;;5038179;28;21972;-72
2021/04/22 10:17:15;;;;;;;9.48;8.23;;;14.50;71.80;;;;;;5049719;28;20033;-72
2021/04/22 10:19:41;;;;;;;9.95;8.10;;;14.20;73.40;;;;;;5058894;28;20092;-72
2021/04/22 10:22:07;;;;;;;11.70;8.43;;;14.00;74.40;;;;;;5058561;28;20023;-72
2021/04/22 10:24:33;;;;;;;10.23;8.80;;;13.90;74.40;;;;;;5058802;28;20029;-72
2021/04/22 10:27:04;;;;;;;11.65;7.97;;;13.90;74.50;;;;;;5058374;28;20065;-72
2021/04/22 10:29:30;;;;;;;19.85;9.43;;;14.30;73.00;;;;;;5058714;28;20021;-72
2021/04/22 10:32:00;;;;;;;9.75;8.75;;;14.80;74.70;;;;;;5058355;28;20036;-72
2021/04/22 10:34:30;;;;;;;13.38;8.82;;;15.50;72.30;;;;;;5058183;28;20025;-72
2021/04/22 10:36:58;;;;;;;9.35;8.45;;;16.70;68.70;;;;;;5058277;28;20086;-72
2021/04/22 10:39:25;;;;;;;10.63;8.77;;;16.90;67.20;;;;;;5058251;28;20028;-72
2021/04/22 10:41:52;;;;;;;10.07;8.23;;;16.70;65.60;;;;;;5058136;28;20432;-72
2021/04/22 10:44:21;;;;;;;11.05;7.65;;;17.60;63.00;;;;;;5058364;28;20071;-72
2021/04/22 10:46:48;;;;;;;8.27;7.32;;;18.30;63.90;;;;;;5058048;28;20036;-72
2021/04/22 10:49:15;;;;;;;7.90;7.13;;;18.80;64.20;;;;;;5057955;28;20444;-72
2021/04/22 10:51:41;;;;;;;9.48;8.10;;;19.00;62.40;;;;;;5058311;28;20025;-72
2021/04/22 10:54:07;;;;;;;8.65;7.30;;;19.50;57.20;;;;;;5057980;28;20033;-72
2021/04/22 10:56:33;;;;;;;8.60;7.60;;;19.70;58.30;;;;;;5058184;28;20105;-72
2021/04/22 10:58:59;;;;;;;8.23;7.30;;;19.70;55.60;;;;;;5057807;28;20108;-72
2021/04/22 11:01:37;;;;;;;7.50;6.72;;;18.80;56.70;;;;;;5057795;28;20025;-72
2021/04/22 11:04:10;;;;;;;9.55;6.88;;;17.70;62.20;;;;;;5057701;28;20031;-72
2021/04/22 11:06:41;;;;;;;8.27;7.28;;;17.20;63.90;;;;;;5057664;28;20116;-72
2021/04/22 11:09:20;;;;;;;7.93;6.97;;;16.70;63.20;;;;;;5057646;28;20029;-72
2021/04/22 11:11:55;;;;;;;9.93;7.90;;;16.40;64.70;;;;;;5057644;28;20421;-72
2021/04/22 11:14:21;;;;;;;8.82;7.22;;;16.20;66.40;;;;;;5057444;28;20036;-72
2021/04/22 11:16:51;;;;;;;8.65;6.70;;;15.90;65.00;;;;;;5057404;28;20025;-72
2021/04/22 11:19:25;;;;;;;9.38;6.57;;;15.90;67.60;;;;;;5057445;28;20021;-72
2021/04/22 11:21:56;;;;;;;7.13;6.43;;;16.00;66.30;;;;;;5057697;28;20032;-72
2021/04/22 11:24:30;;;;;;;10.80;6.63;;;15.90;66.80;;;;;;5057630;28;20053;-72
2021/04/22 11:27:14;;;;;;;11.45;7.00;;;15.80;66.40;;;;;;5057185;28;20395;-72
2021/04/22 11:29:50;;;;;;;8.13;7.32;;;15.70;67.10;;;;;;5057269;28;20031;-72
2021/04/22 11:32:34;;;;;;;10.52;7.53;;;15.90;62.60;;;;;;5057571;28;20045;-72
2021/04/22 11:35:05;;;;;;;9.43;7.80;;;15.90;65.90;;;;;;5057349;28;20037;-72
2021/04/22 11:37:36;;;;;;;11.50;7.15;;;16.00;65.10;;;;;;5057477;28;20029;-72
2021/04/22 11:40:16;;;;;;;7.82;7.13;;;15.90;65.50;;;;;;5057086;28;20013;-72
2021/04/22 11:42:48;;;;;;;9.25;7.00;;;15.80;65.20;;;;;;5057036;28;20104;-72
2021/04/22 11:45:17;;;;;;;7.75;6.70;;;15.70;67.30;;;;;;5057290;28;20071;-72
2021/04/22 11:47:57;;;;;;;7.93;6.55;;;15.90;64.70;;;;;;5057255;28;20075;-72
2021/04/22 11:50:29;;;;;;;7.88;6.82;;;16.10;68.50;;;;;;5056915;28;20024;-72
2021/04/22 11:52:58;;;;;;;8.85;6.57;;;16.30;66.20;;;;;;5057083;28;20033;-72
2021/04/22 11:55:50;;;;;;;7.20;6.00;;;16.40;65.90;;;;;;5057011;28;20024;-72
2021/04/22 11:58:18;;;;;;;7.85;6.28;;;16.10;63.70;;;;;;5056377;28;20118;-72
2021/04/22 12:00:47;;;;;;;8.85;6.93;;;15.70;67.00;;;;;;5056736;28;20021;-72
2021/04/22 12:03:16;;;;;;;10.30;6.45;;;15.60;68.60;;;;;;5056999;28;20021;-72
2021/04/22 12:05:42;;;;;;;7.70;6.70;;;15.70;67.00;;;;;;5056965;28;20063;-72
2021/04/22 12:08:10;;;;;;;8.13;6.70;;;15.60;65.90;;;;;;5056671;28;20360;-72
2021/04/22 12:10:44;;;;;;;9.32;6.90;;;15.60;65.00;;;;;;5056678;28;20021;-72
2021/04/22 12:13:13;;;;;;;9.73;6.63;;;15.60;67.40;;;;;;5056611;28;20036;-72
2021/04/22 12:15:45;;;;;;;7.28;6.15;;;15.60;67.60;;;;;;5056855;28;20028;-72
2021/04/22 12:18:27;;;;;;;7.20;5.85;;;15.60;67.60;;;;;;5056614;28;20052;-72
2021/04/22 12:21:04;;;;;;;6.38;5.50;;;15.60;68.70;;;;;;5056552;28;20104;-72
2021/04/22 12:23:31;;;;;;;8.18;6.97;;;15.50;68.70;;;;;;5056796;28;20095;-72
2021/04/22 12:25:57;;;;;;;6.95;6.25;;;15.40;68.20;;;;;;5056898;28;20049;-72
2021/04/22 12:28:23;;;;;;;9.85;5.90;;;15.40;70.10;;;;;;5060935;28;20033;-72
2021/04/22 12:30:50;;;;;;;6.72;6.13;;;15.40;68.50;;;;;;5060940;28;20322;-72
2021/04/22 12:33:19;;;;;;;7.85;6.63;;;15.40;69.10;;;;;;5060821;28;20045;-72
2021/04/22 12:35:53;;;;;;;11.65;7.18;;;15.60;69.80;;;;;;5060532;28;20021;-72
2021/04/22 12:38:33;;;;;;;9.55;6.85;;;15.80;65.60;;;;;;5060852;28;20427;-72
2021/04/22 12:41:00;;;;;;;7.65;6.38;;;15.90;67.30;;;;;;5060754;28;20078;-72
2021/04/22 12:43:29;;;;;;;9.25;7.25;;;15.90;67.80;;;;;;5060276;28;20029;-72
2021/04/22 12:45:57;;;;;;;9.05;6.45;;;16.00;65.80;;;;;;5060664;28;20025;-72
2021/04/22 12:48:22;;;;;;;8.13;5.85;;;16.00;65.50;;;;;;5060315;28;20021;-72